Witney, United Kingdom
Current Conditions -  °F | °C
As of 9:50 AM on Thursday 29 Jan 2015 (Local Time) from EGVN Reporting Station
Few Clouds Few Clouds  
Wind Chill: 33°   Ceiling: Unl
Heat Index: 39°   Visibility: 6mi
Dew Point: 32°   Wind: 9mph
Humidity: 75%   Direction: 240°WSW
Pressure: 29.09"   Gusts: NA
Location:  51.78°N, 1.49°W
Report Text: EGVN 290950Z 24008KT 9999 FEW016 04/M00 Q0985 BLU NOSIG
Loading
Personal Weather Stations






























Interactive Weather Map New forecast layout! Learn more

10-Day Weather Forecast

Advertisements
Track Severe Weather on mobile